Time;durP1;ratioP1;P1;durP2;ratioP2;P2;SDS_P1;SDS_P2;PMS_P1;PMS_P2;Temp;Humidity;BMP_temperature;BMP_pressure;BME280_temperature;BME280_humidity;BME280_pressure;Samples;Min_cycle;Max_cycle;Signal;HPM_P1;HPM_P2
2022/09/12 00:01:46;;;;;;;;;12.75;11.00;;;;;19.79;56.30;100944.97;5077050;27;73262;-55
2022/09/12 00:04:11;;;;;;;;;11.50;8.00;;;;;19.79;56.23;100942.31;5075907;28;45673;-54
2022/09/12 00:06:37;;;;;;;;;15.50;10.50;;;;;19.79;56.45;100944.97;5077280;28;45460;-55
2022/09/12 00:09:06;;;;;;;;;13.25;10.75;;;;;19.80;56.09;100947.53;5075941;28;64497;-55
2022/09/12 00:11:37;;;;;;;;;11.00;10.00;;;;;19.78;56.35;100943.25;5074656;28;46310;-54
2022/09/12 00:14:03;;;;;;;;;9.50;9.25;;;;;19.75;56.20;100944.31;5075743;28;45226;-56
2022/09/12 00:16:30;;;;;;;;;10.75;9.00;;;;;19.72;56.22;100940.03;5068646;28;45289;-54
2022/09/12 00:18:56;;;;;;;;;16.25;12.50;;;;;19.73;56.25;100938.22;5077859;28;45419;-54
2022/09/12 00:21:21;;;;;;;;;10.00;8.75;;;;;19.74;56.20;100931.97;5071288;28;47073;-55
2022/09/12 00:23:49;;;;;;;;;12.75;9.25;;;;;19.76;56.19;100934.53;5056165;28;45392;-55
2022/09/12 00:26:16;;;;;;;;;10.00;8.50;;;;;19.77;56.08;100937.09;5061065;28;45455;-53
2022/09/12 00:28:41;;;;;;;;;10.00;10.00;;;;;19.77;56.08;100929.13;5049729;27;45536;-55
2022/09/12 00:31:10;;;;;;;;;11.00;8.00;;;;;19.73;56.43;100927.59;5078889;28;46556;-54
2022/09/12 00:33:36;;;;;;;;;12.00;10.25;;;;;19.72;56.50;100924.09;5075100;27;45795;-55
2022/09/12 00:36:07;;;;;;;;;8.75;8.00;;;;;19.68;56.62;100919.91;5076799;27;67867;-55
2022/09/12 00:38:32;;;;;;;;;9.75;9.50;;;;;19.67;56.90;100917.34;5077239;27;45212;-53
2022/09/12 00:40:58;;;;;;;;;13.00;12.50;;;;;19.66;56.17;100911.19;5072598;27;46780;-55
2022/09/12 00:43:26;;;;;;;;;14.25;9.00;;;;;19.67;56.49;100917.34;5043599;28;45287;-55
2022/09/12 00:45:53;;;;;;;;;11.25;9.25;;;;;19.62;56.94;100898.19;5073439;27;45450;-55
2022/09/12 00:48:32;;;;;;;;;15.75;11.00;;;;;19.67;56.50;100898.75;5055280;28;45688;-53
2022/09/12 00:50:58;;;;;;;;;11.75;9.25;;;;;19.66;56.45;100892.59;5059619;28;46420;-55
2022/09/12 00:53:24;;;;;;;;;13.00;12.00;;;;;19.69;56.72;100897.72;5071508;27;45492;-55
2022/09/12 00:55:51;;;;;;;;;11.50;9.25;;;;;19.69;56.40;100897.72;5076517;27;58762;-55
2022/09/12 00:58:27;;;;;;;;;12.50;9.25;;;;;19.69;56.47;100892.44;5077311;27;73352;-53
2022/09/12 01:00:52;;;;;;;;;14.75;11.00;;;;;19.70;56.61;100890.59;5059663;28;46098;-54
2022/09/12 01:03:19;;;;;;;;;10.75;9.75;;;;;19.67;56.67;100889.03;5071300;28;45320;-55
2022/09/12 01:06:22;;;;;;;;;9.25;9.25;;;;;19.67;56.59;100890.78;5052861;28;45552;-54
2022/09/12 01:08:48;;;;;;;;;9.75;8.00;;;;;19.68;56.81;100890.69;5070378;27;45459;-52
2022/09/12 01:11:14;;;;;;;;;8.75;8.50;;;;;19.68;56.51;100889.84;5080010;27;45507;-54
2022/09/12 01:13:41;;;;;;;;;10.50;9.00;;;;;19.68;56.72;100888.06;5071448;27;73991;-55
2022/09/12 01:16:07;;;;;;;;;12.00;9.75;;;;;19.67;56.58;100883.72;5076165;27;45328;-54
2022/09/12 01:18:59;;;;;;;;;14.25;11.25;;;;;19.68;56.68;100881.91;5056563;28;45775;-55
2022/09/12 01:21:39;;;;;;;;;9.00;8.50;;;;;19.68;56.52;100873.94;5059670;28;46834;-56
2022/09/12 01:24:16;;;;;;;;;12.75;11.75;;;;;19.67;56.44;100883.72;5059082;28;45493;-55
2022/09/12 01:27:14;;;;;;;;;10.25;7.75;;;;;19.67;56.67;100882.81;5071087;28;45320;-55
2022/09/12 01:29:57;;;;;;;;;10.00;9.00;;;;;19.64;56.53;100869.78;5041163;28;45510;-54
2022/09/12 01:32:36;;;;;;;;;11.75;11.00;;;;;19.59;56.81;100870.06;5075845;28;45577;-55
2022/09/12 01:35:21;;;;;;;;;9.00;7.50;;;;;19.56;56.65;100875.53;5050209;28;45381;-55
2022/09/12 01:37:53;;;;;;;;;9.25;8.25;;;;;19.55;56.49;100868.53;5067985;28;45448;-54
2022/09/12 01:40:28;;;;;;;;;12.25;9.00;;;;;19.53;56.65;100855.38;5079604;28;45462;-54
2022/09/12 01:43:03;;;;;;;;;12.00;9.00;;;;;19.49;56.50;100855.63;5060871;28;46137;-53
2022/09/12 01:45:38;;;;;;;;;14.00;9.25;;;;;19.45;56.62;100857.63;5046810;27;45411;-55
2022/09/12 01:48:19;;;;;;;;;10.25;10.00;;;;;19.43;56.95;100856.88;5062351;28;45355;-54
2022/09/12 01:50:59;;;;;;;;;11.50;10.25;;;;;19.37;56.79;100856.41;5072106;28;45410;-56
2022/09/12 01:53:33;;;;;;;;;9.25;9.25;;;;;19.32;57.07;100862.00;5073755;28;45345;-55
2022/09/12 01:56:07;;;;;;;;;10.50;9.00;;;;;19.31;56.89;100855.00;5071196;28;45709;-55
2022/09/12 01:58:45;;;;;;;;;9.50;9.00;;;;;19.31;56.94;100858.47;5054920;28;45363;-55
2022/09/12 02:01:25;;;;;;;;;10.25;10.00;;;;;19.30;56.93;100850.63;5031952;28;47241;-53
2022/09/12 02:04:09;;;;;;;;;9.25;8.50;;;;;19.31;56.87;100857.63;5058742;28;46212;-53
2022/09/12 02:06:49;;;;;;;;;8.25;8.25;;;;;19.32;57.12;100854.91;5030622;27;45537;-56
2022/09/12 02:09:32;;;;;;;;;10.00;9.00;;;;;19.28;57.29;100856.03;5054950;28;45350;-55
2022/09/12 02:11:59;;;;;;;;;6.75;6.75;;;;;19.26;56.85;100860.56;5049767;28;45429;-55
2022/09/12 02:14:31;;;;;;;;;11.50;8.00;;;;;19.19;57.18;100853.94;5058603;27;45502;-55
2022/09/12 02:17:06;;;;;;;;;10.75;10.00;;;;;19.16;57.62;100844.38;5054312;28;45355;-54
2022/09/12 02:19:46;;;;;;;;;13.00;8.00;;;;;19.19;57.63;100850.44;5039717;27;45324;-54
2022/09/12 02:22:14;;;;;;;;;9.75;9.25;;;;;19.22;57.68;100843.13;5056163;28;45580;-55
2022/09/12 02:24:42;;;;;;;;;14.75;8.75;;;;;19.22;57.40;100843.13;5060335;27;47120;-53
2022/09/12 02:27:20;;;;;;;;;9.75;9.00;;;;;19.22;57.25;100843.13;5078601;27;45799;-55
2022/09/12 02:29:47;;;;;;;;;10.00;7.75;;;;;19.18;57.60;100833.66;5062141;27;45398;-55
2022/09/12 02:32:36;;;;;;;;;11.00;8.00;;;;;19.16;57.51;100833.75;5055914;28;65271;-55
2022/09/12 02:35:14;;;;;;;;;9.50;8.00;;;;;19.17;57.45;100834.59;5077273;27;45562;-53
2022/09/12 02:38:09;;;;;;;;;10.00;9.00;;;;;19.16;57.58;100833.75;5042103;28;45415;-53
2022/09/12 02:40:35;;;;;;;;;7.50;7.25;;;;;19.10;57.23;100830.63;5054064;27;45522;-54
2022/09/12 02:43:02;;;;;;;;;7.00;6.25;;;;;19.06;57.54;100819.34;5034063;28;45506;-52
2022/09/12 02:45:28;;;;;;;;;9.00;7.25;;;;;19.03;57.82;100824.00;5077081;27;46276;-53
2022/09/12 02:48:13;;;;;;;;;9.25;7.25;;;;;19.02;57.61;100822.31;5047999;28;45315;-55
2022/09/12 02:50:39;;;;;;;;;9.00;7.00;;;;;19.01;57.62;100816.13;5049708;28;45220;-55
2022/09/12 02:53:06;;;;;;;;;6.75;6.75;;;;;19.02;57.71;100814.34;5055886;27;45597;-51
2022/09/12 02:55:33;;;;;;;;;10.00;8.75;;;;;19.02;57.72;100814.34;5046072;28;46132;-52
2022/09/12 02:58:01;;;;;;;;;5.00;5.00;;;;;19.00;57.79;100816.22;5061414;28;45491;-54
2022/09/12 03:00:29;;;;;;;;;10.25;7.00;;;;;18.99;57.65;100811.88;5059118;27;45376;-54
2022/09/12 03:03:10;;;;;;;;;10.50;7.75;;;;;18.99;57.97;100807.41;5056793;28;47281;-54
2022/09/12 03:05:55;;;;;;;;;10.75;8.25;;;;;19.02;58.13;100801.09;5056528;28;45393;-53
2022/09/12 03:08:46;;;;;;;;;15.00;10.25;;;;;19.04;58.03;100805.34;5055764;27;45846;-55
2022/09/12 03:11:17;;;;;;;;;15.50;14.50;;;;;19.03;58.24;100800.97;5075436;27;45348;-53
2022/09/12 03:14:12;;;;;;;;;15.50;13.00;;;;;19.05;58.19;100796.44;5059239;28;45206;-54
2022/09/12 03:17:07;;;;;;;;;15.00;14.50;;;;;19.06;58.17;100797.28;5076587;27;45489;-54
2022/09/12 03:19:50;;;;;;;;;12.00;11.25;;;;;19.07;58.25;100796.31;5052246;28;45998;-54
2022/09/12 03:22:30;;;;;;;;;14.75;12.00;;;;;19.06;58.19;100795.47;5076516;27;45480;-55
2022/09/12 03:25:10;;;;;;;;;18.25;15.25;;;;;19.05;58.00;100787.63;5059707;28;45534;-51
2022/09/12 03:27:42;;;;;;;;;17.75;15.75;;;;;19.05;58.07;100791.13;5072184;27;46444;-54
2022/09/12 03:30:07;;;;;;;;;14.75;12.75;;;;;19.05;58.00;100788.50;5045559;28;45440;-53
2022/09/12 03:32:44;;;;;;;;;13.25;11.25;;;;;19.05;58.15;100784.97;5052130;28;45447;-54
2022/09/12 03:35:10;;;;;;;;;19.00;15.25;;;;;19.04;57.91;100786.78;5065547;27;45291;-56
2022/09/12 03:37:36;;;;;;;;;16.25;12.25;;;;;19.04;58.08;100784.13;5070296;27;45214;-54
2022/09/12 03:40:03;;;;;;;;;15.00;11.75;;;;;19.03;57.93;100776.25;5058390;27;70209;-55
2022/09/12 03:42:28;;;;;;;;;15.00;12.75;;;;;19.02;58.19;100778.06;5053399;28;45190;-52
2022/09/12 03:44:54;;;;;;;;;12.25;12.25;;;;;19.01;58.15;100778.16;5047766;28;62074;-55
2022/09/12 03:47:19;;;;;;;;;14.75;11.25;;;;;19.00;57.98;100776.44;5076210;27;71904;-54
2022/09/12 03:49:45;;;;;;;;;13.75;12.00;;;;;19.00;58.16;100776.44;5079793;27;65933;-55
2022/09/12 03:52:10;;;;;;;;;14.25;12.75;;;;;18.98;57.99;100776.53;5070782;27;45420;-55
2022/09/12 03:54:36;;;;;;;;;17.00;13.75;;;;;18.97;58.16;100767.72;5078725;27;71209;-52
2022/09/12 03:57:01;;;;;;;;;13.00;11.00;;;;;18.96;58.01;100766.03;5077984;27;52062;-52
2022/09/12 03:59:26;;;;;;;;;11.50;11.50;;;;;18.95;58.20;100766.13;5074585;28;47036;-51
2022/09/12 04:01:52;;;;;;;;;14.00;11.00;;;;;18.94;58.11;100772.38;5072526;28;64747;-53
2022/09/12 04:04:17;;;;;;;;;14.25;11.75;;;;;18.93;58.15;100773.31;5050339;28;67796;-51
2022/09/12 04:06:42;;;;;;;;;16.75;11.25;;;;;18.90;58.17;100779.66;5072046;28;63534;-53
2022/09/12 04:09:08;;;;;;;;;9.25;9.00;;;;;18.91;58.49;100783.16;5080982;28;45328;-54
2022/09/12 04:11:34;;;;;;;;;13.75;13.00;;;;;18.90;58.40;100779.66;5058022;28;45342;-55
2022/09/12 04:14:00;;;;;;;;;14.75;11.75;;;;;18.89;58.44;100785.94;5075917;28;45372;-53
2022/09/12 04:16:25;;;;;;;;;12.00;11.50;;;;;18.88;58.50;100781.56;5070441;28;46922;-53
2022/09/12 04:18:51;;;;;;;;;12.25;11.75;;;;;18.87;58.58;100790.44;5080879;28;45360;-55
2022/09/12 04:21:18;;;;;;;;;14.75;11.75;;;;;18.86;58.65;100791.41;5074260;28;45305;-53
2022/09/12 04:23:44;;;;;;;;;15.00;11.25;;;;;18.86;58.54;100785.25;5072267;27;45325;-55
2022/09/12 04:26:09;;;;;;;;;14.75;13.50;;;;;18.86;58.76;100795.88;5076724;28;46189;-55
2022/09/12 04:28:36;;;;;;;;;12.75;11.75;;;;;18.83;58.49;100796.88;5074620;28;45396;-53
2022/09/12 04:31:07;;;;;;;;;11.50;11.00;;;;;18.81;58.71;100788.16;5076950;27;45574;-52
2022/09/12 04:33:34;;;;;;;;;11.50;10.25;;;;;18.79;58.62;100782.09;5077876;27;45432;-55
2022/09/12 04:36:04;;;;;;;;;17.00;13.00;;;;;18.77;58.58;100790.13;5080289;27;46224;-53
2022/09/12 04:38:30;;;;;;;;;14.00;10.75;;;;;18.77;58.41;100778.69;5069138;27;45561;-55
2022/09/12 04:40:56;;;;;;;;;12.25;10.00;;;;;18.76;58.53;100776.97;5070488;27;45518;-54
2022/09/12 04:43:21;;;;;;;;;10.75;10.75;;;;;18.77;58.61;100783.97;5080786;28;45478;-56
2022/09/12 04:45:46;;;;;;;;;15.75;13.75;;;;;18.77;58.90;100779.53;5073161;27;72269;-54
2022/09/12 04:48:11;;;;;;;;;14.00;11.00;;;;;18.78;58.66;100785.66;5056953;28;71144;-53
2022/09/12 04:50:37;;;;;;;;;13.00;9.75;;;;;18.77;58.54;100782.19;5072916;27;59998;-53
2022/09/12 04:53:02;;;;;;;;;11.00;10.00;;;;;18.76;58.56;100779.63;5074380;28;45494;-53
2022/09/12 04:55:28;;;;;;;;;15.00;13.00;;;;;18.75;58.28;100777.91;5077057;27;67145;-52
2022/09/12 04:57:53;;;;;;;;;9.25;9.00;;;;;18.78;58.55;100769.75;5067467;28;45289;-49
2022/09/12 05:00:19;;;;;;;;;13.00;12.25;;;;;18.78;58.82;100764.47;5078255;27;69320;-54
2022/09/12 05:02:45;;;;;;;;;12.75;11.25;;;;;18.79;58.52;100766.19;5071646;27;45245;-52
2022/09/12 05:05:10;;;;;;;;;13.25;12.25;;;;;18.78;58.74;100761.81;5063055;27;47092;-51
2022/09/12 05:07:36;;;;;;;;;17.75;14.75;;;;;18.78;58.79;100767.97;5074393;27;45308;-54
2022/09/12 05:10:03;;;;;;;;;12.50;10.75;;;;;18.74;58.58;100755.84;5076250;27;45386;-49
2022/09/12 05:12:29;;;;;;;;;8.75;7.00;;;;;18.80;58.35;100765.22;5066448;28;45522;-53
2022/09/12 05:14:55;;;;;;;;;11.00;9.25;;;;;18.80;58.48;100762.56;5066597;27;46135;-52
2022/09/12 05:17:21;;;;;;;;;11.00;10.75;;;;;18.81;58.13;100751.03;5058788;28;45428;-55
2022/09/12 05:19:47;;;;;;;;;12.75;11.50;;;;;18.79;58.56;100752.91;5061693;28;45285;-50
2022/09/12 05:22:12;;;;;;;;;12.00;9.25;;;;;18.79;58.71;100756.41;5058162;28;46718;-52
2022/09/12 05:24:38;;;;;;;;;14.00;10.75;;;;;18.78;58.62;100759.16;5056320;27;58225;-51
2022/09/12 05:27:04;;;;;;;;;12.25;9.00;;;;;18.76;58.46;100761.06;5067220;27;45444;-52
2022/09/12 05:29:30;;;;;;;;;8.25;7.25;;;;;18.77;58.45;100766.28;5074279;27;45355;-55
2022/09/12 05:31:55;;;;;;;;;9.75;8.75;;;;;18.73;58.29;100761.22;5069820;27;45473;-54
2022/09/12 05:34:21;;;;;;;;;12.00;9.50;;;;;18.70;58.48;100767.59;5078079;27;46932;-52
2022/09/12 05:36:47;;;;;;;;;7.75;7.00;;;;;18.68;58.39;100768.59;5076426;27;45517;-54
2022/09/12 05:39:12;;;;;;;;;10.00;8.75;;;;;18.62;58.54;100761.03;5036303;27;45553;-48
2022/09/12 05:41:37;;;;;;;;;10.50;8.75;;;;;18.59;58.55;100767.38;5061683;28;45523;-53
2022/09/12 05:44:05;;;;;;;;;11.25;8.25;;;;;18.59;58.70;100764.72;5075700;27;62728;-52
2022/09/12 05:46:36;;;;;;;;;7.75;6.50;;;;;18.60;58.61;100763.78;5073392;27;45465;-54
2022/09/12 05:49:03;;;;;;;;;10.25;8.25;;;;;18.59;58.59;100754.97;5051959;27;45399;-52
2022/09/12 05:51:32;;;;;;;;;8.50;8.50;;;;;18.60;58.54;100764.63;5077153;28;45302;-54
2022/09/12 05:53:59;;;;;;;;;9.75;8.00;;;;;18.62;58.73;100764.53;5067394;27;46165;-53
2022/09/12 05:56:29;;;;;;;;;10.25;7.75;;;;;18.63;58.50;100763.59;5048464;28;45283;-51
2022/09/12 05:58:57;;;;;;;;;14.50;11.50;;;;;18.67;58.86;100765.13;5078619;27;45292;-53
2022/09/12 06:01:23;;;;;;;;;21.50;17.50;;;;;18.70;58.60;100772.03;5069639;28;45447;-51
2022/09/12 06:03:51;;;;;;;;;22.75;17.25;;;;;18.74;58.64;100776.22;5061101;27;45451;-52
2022/09/12 06:06:19;;;;;;;;;12.00;10.75;;;;;18.77;58.59;100771.56;5074842;27;45617;-50
2022/09/12 06:08:46;;;;;;;;;12.75;10.25;;;;;18.81;58.69;100766.09;5075874;27;46444;-61
2022/09/12 06:11:13;;;;;;;;;14.00;13.25;;;;;18.85;58.48;100770.28;5072085;27;45449;-62
2022/09/12 06:13:39;;;;;;;;;13.00;10.00;;;;;18.86;58.58;100767.53;5076391;27;47108;-65
2022/09/12 06:16:09;;;;;;;;;13.00;13.00;;;;;18.89;58.33;100761.19;5075297;27;45309;-64
2022/09/12 06:18:35;;;;;;;;;14.50;13.25;;;;;18.89;58.18;100767.38;5075845;27;45470;-68
2022/09/12 06:21:05;;;;;;;;;13.00;11.50;;;;;18.91;58.54;100770.75;5068674;27;45310;-62
2022/09/12 06:23:30;;;;;;;;;14.75;11.75;;;;;18.92;58.52;100775.09;5066312;27;45901;-62
2022/09/12 06:25:56;;;;;;;;;14.50;13.00;;;;;18.94;58.54;100775.00;5067233;28;45349;-62
2022/09/12 06:28:22;;;;;;;;;13.25;12.50;;;;;18.94;58.30;100773.19;5075773;27;64874;-63
2022/09/12 06:30:47;;;;;;;;;18.75;15.00;;;;;18.96;58.19;100779.28;5078535;27;45541;-64
2022/09/12 06:33:14;;;;;;;;;17.00;16.00;;;;;18.98;58.33;100779.16;5071402;27;46066;-63
2022/09/12 06:35:39;;;;;;;;;17.25;14.75;;;;;18.99;58.25;100780.06;5074055;27;45589;-62
2022/09/12 06:38:05;;;;;;;;;16.75;14.25;;;;;19.00;58.03;100781.72;5073645;27;45217;-62
2022/09/12 06:40:31;;;;;;;;;17.75;13.50;;;;;18.98;57.88;100779.16;5074520;27;45579;-62
2022/09/12 06:42:56;;;;;;;;;20.25;15.00;;;;;18.97;58.26;100782.78;5064073;27;45313;-61
2022/09/12 06:45:22;;;;;;;;;16.25;11.75;;;;;18.97;58.27;100785.44;5065432;28;45263;-62
2022/09/12 06:47:47;;;;;;;;;17.25;12.75;;;;;18.97;58.30;100780.13;5056042;27;58161;-61
2022/09/12 06:50:13;;;;;;;;;17.50;14.00;;;;;18.97;58.38;100780.13;5075198;27;46927;-57
2022/09/12 06:52:38;;;;;;;;;19.25;15.50;;;;;18.97;58.19;100788.09;5074213;27;45224;-57
2022/09/12 06:55:04;;;;;;;;;16.75;14.00;;;;;18.97;58.12;100783.63;5071535;27;45673;-58
2022/09/12 06:57:31;;;;;;;;;16.75;14.00;;;;;18.98;58.12;100784.47;5072235;27;45497;-57
2022/09/12 06:59:57;;;;;;;;;14.75;12.25;;;;;19.02;58.16;100786.00;5077299;28;45396;-57
2022/09/12 07:02:24;;;;;;;;;16.50;14.00;;;;;19.05;58.26;100777.00;5061612;27;47235;-58
2022/09/12 07:04:50;;;;;;;;;20.75;14.00;;;;;19.07;57.84;100775.09;5068679;27;45832;-57
2022/09/12 07:07:16;;;;;;;;;15.00;13.25;;;;;19.10;58.22;100766.97;5076070;27;45284;-57
2022/09/12 07:09:41;;;;;;;;;15.50;15.00;;;;;19.12;57.89;100775.66;5066849;28;45454;-58
2022/09/12 07:12:07;;;;;;;;;14.25;12.50;;;;;19.14;58.03;100771.13;5062562;28;71927;-57
2022/09/12 07:14:32;;;;;;;;;17.00;13.25;;;;;19.17;57.95;100770.94;5071902;28;45604;-57
2022/09/12 07:16:57;;;;;;;;;15.25;14.00;;;;;19.22;57.99;100783.94;5057976;28;45471;-58
2022/09/12 07:19:23;;;;;;;;;16.25;13.50;;;;;19.23;57.96;100778.53;5074867;28;69953;-58
2022/09/12 07:21:49;;;;;;;;;17.50;14.25;;;;;19.26;57.82;100775.66;5073374;28;46781;-57
2022/09/12 07:24:14;;;;;;;;;17.25;16.00;;;;;19.30;57.58;100781.63;5077014;28;45161;-57
2022/09/12 07:26:40;;;;;;;;;20.75;14.00;;;;;19.32;57.69;100774.44;5047392;28;45392;-57
2022/09/12 07:29:06;;;;;;;;;21.25;16.75;;;;;19.36;57.78;100770.63;5081881;28;45319;-58
2022/09/12 07:31:33;;;;;;;;;15.00;13.50;;;;;19.40;57.53;100779.25;5077726;27;46190;-50
2022/09/12 07:33:58;;;;;;;;;10.50;9.75;;;;;19.43;57.08;100766.66;5069017;27;72335;-49
2022/09/12 07:36:24;;;;;;;;;9.75;7.50;;;;;19.43;57.06;100771.09;5078165;27;45297;-52
2022/09/12 07:38:57;;;;;;;;;12.25;9.00;;;;;19.40;56.88;100780.09;5075881;27;45778;-48
2022/09/12 07:41:26;;;;;;;;;9.00;6.50;;;;;19.43;56.97;100776.41;5075549;27;45492;-48
2022/09/12 07:43:53;;;;;;;;;12.25;10.25;;;;;19.40;56.77;100774.78;5078863;27;45443;-51
2022/09/12 07:46:19;;;;;;;;;9.00;6.75;;;;;19.42;56.59;100764.94;5057911;28;45451;-50
2022/09/12 07:48:48;;;;;;;;;7.50;6.75;;;;;19.49;56.77;100773.34;5081034;28;45564;-50
2022/09/12 07:51:14;;;;;;;;;10.00;9.75;;;;;19.55;56.87;100772.97;5080719;27;46409;-48
2022/09/12 07:53:40;;;;;;;;;10.00;8.25;;;;;19.58;56.66;100770.09;5077150;27;71782;-50
2022/09/12 07:56:07;;;;;;;;;11.75;8.75;;;;;19.61;56.62;100777.03;5076141;27;45346;-49
2022/09/12 07:58:33;;;;;;;;;12.25;8.00;;;;;19.62;55.99;100779.59;5072634;27;45424;-46
2022/09/12 08:01:14;;;;;;;;;7.00;7.00;;;;;19.63;56.08;100775.97;5060620;28;46105;-47
2022/09/12 08:03:40;;;;;;;;;9.25;7.00;;;;;19.68;56.24;100776.53;5062665;28;45815;-49
2022/09/12 08:06:08;;;;;;;;;7.25;6.50;;;;;19.71;56.22;100776.34;5080838;27;45226;-49
2022/09/12 08:08:35;;;;;;;;;6.50;6.00;;;;;19.78;55.76;100770.66;5078148;27;45367;-48
2022/09/12 08:11:04;;;;;;;;;8.75;7.00;;;;;19.82;55.96;100774.84;5080329;28;46016;-49
2022/09/12 08:13:30;;;;;;;;;8.25;7.50;;;;;19.88;56.07;100766.44;5062932;28;45828;-50
2022/09/12 08:15:58;;;;;;;;;10.25;8.00;;;;;19.94;55.60;100773.16;5080324;28;45277;-51
2022/09/12 08:18:25;;;;;;;;;8.00;8.00;;;;;19.99;55.55;100776.38;5075297;27;45254;-49
2022/09/12 08:20:55;;;;;;;;;12.50;8.25;;;;;20.07;55.66;100774.91;5076130;27;46080;-49
2022/09/12 08:23:22;;;;;;;;;9.75;9.00;;;;;20.15;55.60;100776.19;5078866;27;45718;-49
2022/09/12 08:25:48;;;;;;;;;8.00;8.00;;;;;20.22;55.16;100777.50;5076511;28;45332;-48
2022/09/12 08:28:14;;;;;;;;;9.25;8.50;;;;;20.27;55.16;100776.25;5076508;27;45446;-49
2022/09/12 08:30:39;;;;;;;;;6.50;6.00;;;;;20.35;55.02;100774.88;5055593;27;68156;-48
2022/09/12 08:33:05;;;;;;;;;11.75;7.75;;;;;20.44;55.25;100775.09;5074527;27;64269;-53
2022/09/12 08:35:31;;;;;;;;;9.25;8.75;;;;;20.54;55.02;100769.16;5079150;28;45543;-53
2022/09/12 08:37:57;;;;;;;;;7.00;7.00;;;;;20.62;54.66;100761.53;5078561;27;61256;-47
2022/09/12 08:40:22;;;;;;;;;13.25;10.00;;;;;20.71;54.33;100760.06;5052763;28;46237;-50
2022/09/12 08:43:02;;;;;;;;;11.00;8.00;;;;;20.80;54.13;100759.41;5062397;28;45423;-52
2022/09/12 08:45:35;;;;;;;;;7.00;7.00;;;;;20.85;53.86;100765.25;5061021;28;45474;-50
2022/09/12 08:48:04;;;;;;;;;8.50;6.75;;;;;20.90;53.49;100759.63;5045409;28;45334;-50
2022/09/12 08:50:29;;;;;;;;;7.00;7.00;;;;;20.93;53.61;100770.91;5079371;28;46392;-53
2022/09/12 08:52:58;;;;;;;;;8.00;7.00;;;;;20.97;53.90;100767.06;5073161;28;45267;-50
2022/09/12 08:55:39;;;;;;;;;8.00;7.50;;;;;21.01;53.47;100760.56;5069151;28;45412;-50
2022/09/12 08:58:26;;;;;;;;;9.75;7.00;;;;;21.05;53.35;100772.72;5048983;28;45304;-51
2022/09/12 09:01:12;;;;;;;;;9.00;9.00;;;;;21.12;53.28;100775.75;5091478;27;45542;-49
2022/09/12 09:04:16;;;;;;;;;22.75;18.00;;;;;21.18;53.28;100775.34;5080221;28;45323;-49
2022/09/12 09:06:58;;;;;;;;;24.00;18.50;;;;;21.24;53.33;100769.56;5070301;28;45375;-51
2022/09/12 09:09:58;;;;;;;;;20.25;18.00;;;;;21.31;53.33;100769.16;5079731;28;45462;-50
2022/09/12 09:12:32;;;;;;;;;26.00;21.25;;;;;21.35;53.41;100758.16;5073831;28;46592;-51
2022/09/12 09:15:24;;;;;;;;;8.50;8.00;;;;;21.42;53.06;100753.25;5068296;28;45846;-51
2022/09/12 09:17:54;;;;;;;;;10.50;8.25;;;;;21.48;52.80;100754.63;5067117;28;45612;-52
2022/09/12 09:20:35;;;;;;;;;10.00;8.75;;;;;21.53;53.15;100755.16;5079283;27;45435;-50
2022/09/12 09:23:14;;;;;;;;;11.00;8.50;;;;;21.58;52.51;100753.88;5068995;27;45349;-52
2022/09/12 09:25:51;;;;;;;;;12.00;9.50;;;;;21.64;52.35;100751.69;5057944;28;45303;-51
2022/09/12 09:28:36;;;;;;;;;10.75;7.00;;;;;21.67;52.59;100735.50;5074872;27;45424;-48
2022/09/12 09:31:01;;;;;;;;;11.75;9.50;;;;;21.73;52.47;100737.72;5070839;27;45525;-51
2022/09/12 09:33:32;;;;;;;;;11.00;8.75;;;;;21.76;52.72;100733.03;5041164;28;48022;-49
2022/09/12 09:36:06;;;;;;;;;19.50;15.75;;;;;21.83;52.25;100733.41;5053155;28;46033;-49
2022/09/12 09:38:48;;;;;;;;;11.25;10.00;;;;;21.87;52.10;100732.22;5075293;27;45408;-52
2022/09/12 09:41:52;;;;;;;;;10.00;10.00;;;;;21.91;52.07;100731.03;5058649;28;45802;-49
2022/09/12 09:44:17;;;;;;;;;9.50;8.00;;;;;21.96;52.44;100736.84;5009004;28;46140;-48
2022/09/12 09:46:43;;;;;;;;;8.75;8.00;;;;;22.02;51.98;100729.38;4998253;28;62671;-51
2022/09/12 09:49:11;;;;;;;;;9.50;6.00;;;;;22.06;51.87;100723.72;5006109;28;45517;-51
2022/09/12 09:51:39;;;;;;;;;9.50;9.50;;;;;22.10;51.94;100719.00;5058251;28;45427;-52
2022/09/12 09:54:11;;;;;;;;;10.00;8.00;;;;;22.14;51.67;100718.63;5069887;27;45307;-52
2022/09/12 09:56:41;;;;;;;;;9.75;8.00;;;;;22.19;52.14;100721.78;5079174;28;45346;-48
2022/09/12 09:59:26;;;;;;;;;7.00;7.00;;;;;22.25;51.56;100730.28;5071899;28;45447;-49
2022/09/12 10:01:56;;;;;;;;;5.75;5.75;;;;;22.29;50.84;100718.44;5076630;28;45214;-50
2022/09/12 10:04:24;;;;;;;;;7.25;5.50;;;;;22.34;50.82;100716.28;5054302;28;46209;-51
2022/09/12 10:06:51;;;;;;;;;6.50;4.50;;;;;22.41;50.63;100706.84;5032427;27;45334;-47
2022/09/12 10:09:20;;;;;;;;;6.00;6.00;;;;;22.46;51.43;100712.66;5083417;27;45244;-48
2022/09/12 10:11:47;;;;;;;;;5.25;5.00;;;;;22.52;50.70;100706.88;5076728;27;45320;-49
2022/09/12 10:14:40;;;;;;;;;9.00;6.00;;;;;22.59;50.16;100699.22;5075537;27;46257;-49
2022/09/12 10:17:42;;;;;;;;;6.50;6.00;;;;;22.67;50.56;100693.31;5054995;28;45419;-48
2022/09/12 10:20:35;;;;;;;;;10.75;6.00;;;;;22.77;50.38;100696.09;4992978;28;45581;-53
2022/09/12 10:23:31;;;;;;;;;6.75;5.25;;;;;22.85;49.78;100699.84;5061277;28;45236;-51
2022/09/12 10:26:00;;;;;;;;;15.25;12.75;;;;;22.93;49.54;100696.59;5057065;28;47314;-49
2022/09/12 10:28:38;;;;;;;;;7.75;6.25;;;;;22.98;49.27;100688.19;5027892;28;45761;-51
2022/09/12 10:31:05;;;;;;;;;5.00;4.00;;;;;;;;5056813;28;45391;-50
2022/09/12 10:33:36;;;;;;;;;6.50;4.00;;;;;23.09;48.86;100696.22;5076577;28;45431;-52
2022/09/12 10:36:02;;;;;;;;;3.75;3.75;;;;;23.14;47.78;100688.69;5058479;28;47327;-49
2022/09/12 10:38:30;;;;;;;;;2.25;2.25;;;;;23.20;47.98;100687.34;5075444;28;45536;-50
2022/09/12 10:40:58;;;;;;;;;3.50;3.00;;;;;23.25;47.72;100687.84;5050659;28;45355;-47
2022/09/12 10:43:36;;;;;;;;;4.25;3.00;;;;;23.29;47.91;100690.09;5050227;28;45296;-48
2022/09/12 10:46:13;;;;;;;;;5.25;3.50;;;;;23.34;47.63;100687.06;5074908;28;45393;-52
2022/09/12 10:48:38;;;;;;;;;5.25;3.50;;;;;23.39;47.77;100690.22;5062744;28;45380;-49
2022/09/12 10:51:04;;;;;;;;;6.50;6.25;;;;;23.40;47.69;100691.91;5078401;27;64503;-49
2022/09/12 10:53:40;;;;;;;;;4.00;3.00;;;;;23.45;47.18;100689.72;5060577;28;45315;-48
2022/09/12 10:56:10;;;;;;;;;2.00;2.00;;;;;23.45;47.58;100686.19;5082031;28;45340;-48
2022/09/12 10:59:13;;;;;;;;;4.00;3.00;;;;;23.54;47.69;100685.44;5082289;28;45430;-48
2022/09/12 11:01:48;;;;;;;;;7.00;5.00;;;;;23.58;48.01;100678.84;5074578;28;45490;-50
2022/09/12 11:04:21;;;;;;;;;6.00;6.00;;;;;23.62;47.18;100677.63;5045167;28;45478;-52
2022/09/12 11:07:24;;;;;;;;;6.75;4.75;;;;;23.67;47.08;100675.44;5060410;28;47135;-52
2022/09/12 11:10:17;;;;;;;;;6.00;6.00;;;;;23.72;47.40;100669.69;5077169;28;46817;-50
2022/09/12 11:13:08;;;;;;;;;9.00;8.00;;;;;23.77;47.00;100669.31;5074829;28;45781;-52
2022/09/12 11:16:13;;;;;;;;;12.25;8.50;;;;;23.82;46.94;100669.81;5072877;27;45516;-51
2022/09/12 11:19:06;;;;;;;;;3.25;2.75;;;;;23.90;47.04;100671.84;5054856;28;45302;-50
2022/09/12 11:22:04;;;;;;;;;7.50;6.50;;;;;23.96;46.81;100682.03;5056231;28;45599;-50
2022/09/12 11:25:07;;;;;;;;;11.75;10.50;;;;;24.00;47.06;100678.94;5052538;28;45185;-52
2022/09/12 11:27:48;;;;;;;;;19.00;11.75;;;;;24.06;47.16;100670.41;5071284;27;45416;-49
2022/09/12 11:30:15;;;;;;;;;21.75;10.25;;;;;24.11;46.81;100679.88;5055490;27;45481;-48
2022/09/12 11:32:41;;;;;;;;;10.25;6.25;;;;;24.13;45.81;100678.75;5057650;28;45565;-52
2022/09/12 11:35:15;;;;;;;;;3.25;3.00;;;;;24.18;45.57;100664.97;5069260;27;45297;-51
2022/09/12 11:38:02;;;;;;;;;10.75;10.75;;;;;24.22;45.51;100661.06;5080512;27;45409;-52